createdAt,value
2018-12-20T00:01:21.149Z,46.93
2018-12-20T00:03:50.316Z,49.57
2018-12-20T00:06:19.386Z,44.73
2018-12-20T00:08:48.700Z,47.70
2018-12-20T00:11:17.874Z,56.87
2018-12-20T00:13:47.015Z,49.50
2018-12-20T00:16:16.017Z,52.30
2018-12-20T00:18:45.281Z,54.47
2018-12-20T00:21:14.351Z,43.47
2018-12-20T00:23:43.421Z,51.73
2018-12-20T00:26:12.534Z,49.57
2018-12-20T00:28:41.789Z,43.50
2018-12-20T00:31:13.673Z,54.77
2018-12-20T00:33:41.824Z,47.27
2018-12-20T00:36:10.983Z,46.90
2018-12-20T00:38:40.524Z,44.53
2018-12-20T00:41:09.507Z,49.67
2018-12-20T00:43:38.662Z,43.40
2018-12-20T00:46:07.797Z,44.33
2018-12-20T00:48:36.724Z,48.77
2018-12-20T00:51:05.641Z,64.37
2018-12-20T00:53:34.665Z,45.93
2018-12-20T00:56:03.689Z,57.60
2018-12-20T00:58:32.597Z,44.00
2018-12-20T01:01:01.433Z,48.30
2018-12-20T01:03:30.675Z,50.10
2018-12-20T01:05:59.809Z,52.57
2018-12-20T01:08:28.779Z,46.57
2018-12-20T01:10:57.888Z,53.63
2018-12-20T01:13:27.149Z,50.20
2018-12-20T01:15:56.344Z,47.10
2018-12-20T01:18:25.372Z,53.10
2018-12-20T01:20:54.582Z,45.30
2018-12-20T01:23:23.671Z,57.33
2018-12-20T01:25:52.609Z,52.00
2018-12-20T01:28:21.719Z,55.73
2018-12-20T01:30:51.159Z,52.60
2018-12-20T01:33:20.455Z,48.50
2018-12-20T01:35:49.722Z,51.73
2018-12-20T01:38:18.799Z,52.30
2018-12-20T01:40:47.882Z,61.40
2018-12-20T01:43:16.974Z,49.47
2018-12-20T01:45:46.044Z,52.57
2018-12-20T01:48:15.185Z,54.00
2018-12-20T01:50:44.203Z,50.90
2018-12-20T01:53:13.235Z,52.70
2018-12-20T01:55:42.250Z,56.77
2018-12-20T01:58:11.452Z,52.90
2018-12-20T02:00:40.487Z,51.20
2018-12-20T02:03:09.545Z,47.63
2018-12-20T02:05:38.690Z,51.23
2018-12-20T02:08:07.821Z,49.03
2018-12-20T02:10:36.846Z,50.07
2018-12-20T02:13:05.776Z,51.20
2018-12-20T02:15:35.062Z,45.57
2018-12-20T02:18:03.983Z,48.27
2018-12-20T02:20:33.056Z,44.97
2018-12-20T02:23:02.210Z,48.40
2018-12-20T02:25:31.292Z,49.57
2018-12-20T02:28:00.419Z,48.50
2018-12-20T02:30:29.351Z,45.57
2018-12-20T02:32:58.640Z,44.40
2018-12-20T02:35:27.645Z,44.27
2018-12-20T02:37:56.723Z,44.07
2018-12-20T02:40:25.749Z,47.00
2018-12-20T02:42:55.065Z,37.80
2018-12-20T02:45:24.137Z,48.67
2018-12-20T02:47:53.283Z,40.77
2018-12-20T02:50:22.467Z,40.90
2018-12-20T02:52:51.886Z,38.40
2018-12-20T02:55:21.006Z,39.00
2018-12-20T02:57:50.211Z,50.37
2018-12-20T03:00:19.396Z,48.10
2018-12-20T03:02:48.417Z,50.47
2018-12-20T03:05:17.399Z,49.70
2018-12-20T03:07:46.403Z,47.17
2018-12-20T03:10:15.786Z,49.47
2018-12-20T03:12:44.888Z,59.60
2018-12-20T03:15:19.845Z,47.13
2018-12-20T03:17:44.952Z,45.10
2018-12-20T03:20:14.056Z,39.17
2018-12-20T03:22:43.147Z,34.07
2018-12-20T03:25:12.149Z,41.13
2018-12-20T03:27:41.288Z,36.27
2018-12-20T03:30:10.324Z,31.30
2018-12-20T03:32:39.301Z,36.33
2018-12-20T03:35:08.297Z,35.50
2018-12-20T03:37:37.486Z,37.57
2018-12-20T03:40:06.571Z,35.87
2018-12-20T03:42:35.708Z,40.33
2018-12-20T03:45:04.852Z,46.10
2018-12-20T03:47:33.887Z,43.10
2018-12-20T03:50:03.066Z,47.80
2018-12-20T03:52:32.186Z,42.70
2018-12-20T03:55:01.314Z,42.00
2018-12-20T03:57:30.293Z,45.40
2018-12-20T03:59:59.332Z,44.50
2018-12-20T04:02:28.366Z,40.87
2018-12-20T04:04:57.506Z,48.17
2018-12-20T04:07:26.570Z,43.87
2018-12-20T04:09:55.734Z,46.80
2018-12-20T04:12:24.651Z,48.80
2018-12-20T04:14:53.695Z,40.63
2018-12-20T04:17:22.691Z,38.67
2018-12-20T04:19:51.669Z,41.83
2018-12-20T04:22:20.678Z,37.57
2018-12-20T04:24:49.645Z,43.60
2018-12-20T04:27:18.580Z,44.73
2018-12-20T04:29:47.684Z,47.93
2018-12-20T04:32:16.860Z,52.20
2018-12-20T04:34:45.811Z,47.80
2018-12-20T04:37:14.944Z,40.67
2018-12-20T04:39:44.346Z,48.37
2018-12-20T04:42:13.402Z,41.20
2018-12-20T04:44:42.784Z,39.70
2018-12-20T04:47:11.945Z,44.13
2018-12-20T04:49:41.106Z,48.07
2018-12-20T04:52:10.551Z,45.77
2018-12-20T04:54:39.681Z,59.50
2018-12-20T04:57:08.662Z,43.60
2018-12-20T04:59:37.957Z,47.50
2018-12-20T05:02:06.987Z,54.43
2018-12-20T05:04:35.943Z,54.80
2018-12-20T05:07:05.347Z,59.67
2018-12-20T05:09:34.514Z,42.20
2018-12-20T05:12:03.934Z,43.90
2018-12-20T05:14:33.155Z,47.20
2018-12-20T05:17:02.201Z,39.57
2018-12-20T05:19:31.312Z,42.90
2018-12-20T05:22:00.407Z,37.80
2018-12-20T05:24:29.510Z,42.63
2018-12-20T05:26:58.637Z,40.27
2018-12-20T05:29:27.697Z,38.60
2018-12-20T05:31:56.827Z,29.43
2018-12-20T05:34:26.067Z,37.70
2018-12-20T05:36:55.287Z,35.53
2018-12-20T05:39:24.457Z,37.40
2018-12-20T05:41:53.740Z,39.23
2018-12-20T05:44:23.067Z,36.40
2018-12-20T05:46:52.297Z,47.03
2018-12-20T05:49:21.329Z,37.03
2018-12-20T05:51:50.392Z,46.17
2018-12-20T05:54:19.555Z,50.73
2018-12-20T05:56:48.665Z,46.90
2018-12-20T05:59:17.589Z,46.43
2018-12-20T06:01:46.611Z,53.40
2018-12-20T06:04:15.548Z,41.00
2018-12-20T06:06:44.788Z,49.83
2018-12-20T06:09:13.836Z,39.83
2018-12-20T06:11:42.808Z,43.67
2018-12-20T06:14:11.801Z,50.10
2018-12-20T06:16:40.772Z,41.37
2018-12-20T06:19:09.847Z,55.57
2018-12-20T06:21:38.948Z,60.97
2018-12-20T06:24:08.040Z,49.33
2018-12-20T06:26:37.124Z,43.50
2018-12-20T06:29:06.104Z,45.90
2018-12-20T06:31:35.232Z,55.87
2018-12-20T06:34:04.265Z,43.63
2018-12-20T06:36:33.336Z,43.33
2018-12-20T06:39:02.328Z,39.77
2018-12-20T06:41:31.788Z,35.70
2018-12-20T06:44:07.155Z,41.70
2018-12-20T06:46:31.841Z,50.17
2018-12-20T06:49:00.901Z,50.63
2018-12-20T06:51:29.859Z,58.57
2018-12-20T06:53:58.960Z,47.43
2018-12-20T06:56:27.893Z,51.67
2018-12-20T06:58:56.824Z,37.13
2018-12-20T07:01:25.724Z,37.53
2018-12-20T07:03:54.786Z,44.63
2018-12-20T07:06:23.828Z,37.70
2018-12-20T07:08:52.853Z,49.13
2018-12-20T07:11:21.793Z,39.17
2018-12-20T07:13:50.777Z,37.57
2018-12-20T07:16:19.769Z,33.60
2018-12-20T07:18:48.741Z,35.83
2018-12-20T07:21:17.816Z,39.93
2018-12-20T07:23:46.794Z,48.33
2018-12-20T07:26:15.805Z,35.80
2018-12-20T07:31:16.719Z,41.90
2018-12-20T07:33:45.653Z,38.37
2018-12-20T07:36:14.692Z,41.30
2018-12-20T07:38:43.615Z,42.53
2018-12-20T07:44:59.243Z,41.57
2018-12-20T07:47:28.229Z,44.10
2018-12-20T07:49:57.171Z,43.00
2018-12-20T07:52:26.169Z,42.33
2018-12-20T07:54:55.254Z,48.60
2018-12-20T07:57:24.964Z,40.23
2018-12-20T07:59:54.192Z,32.80
2018-12-20T08:02:23.177Z,30.97
2018-12-20T08:04:52.148Z,30.77
2018-12-20T08:07:21.246Z,32.80
2018-12-20T08:09:50.213Z,52.30
2018-12-20T08:12:19.246Z,35.83
2018-12-20T08:14:48.257Z,37.17
2018-12-20T08:17:17.286Z,36.63
2018-12-20T08:19:46.251Z,29.73
2018-12-20T08:22:15.213Z,44.77
2018-12-20T08:24:44.228Z,37.07
2018-12-20T08:27:13.221Z,38.50
2018-12-20T08:29:44.271Z,38.87
2018-12-20T08:32:13.197Z,34.70
2018-12-20T08:34:42.413Z,43.80
2018-12-20T08:37:11.341Z,32.97
2018-12-20T08:39:40.213Z,35.60
2018-12-20T08:42:09.179Z,34.17
2018-12-20T08:44:38.153Z,40.47
2018-12-20T08:47:07.170Z,29.90
2018-12-20T08:49:36.241Z,40.60
2018-12-20T08:52:05.237Z,37.30
2018-12-20T08:54:34.123Z,36.40
2018-12-20T08:57:04.342Z,37.97
2018-12-20T08:59:33.538Z,43.43
2018-12-20T09:02:02.421Z,44.10
2018-12-20T09:04:31.447Z,35.67
2018-12-20T09:07:00.472Z,32.73
2018-12-20T09:09:29.474Z,37.57
2018-12-20T09:11:58.464Z,49.97
2018-12-20T09:14:27.501Z,34.37
2018-12-20T09:17:02.932Z,37.03
2018-12-20T09:19:27.580Z,36.90
2018-12-20T09:21:56.597Z,35.80
2018-12-20T09:24:25.665Z,30.93
2018-12-20T09:26:54.768Z,47.03
2018-12-20T09:29:23.750Z,39.23
2018-12-20T09:31:52.748Z,46.27
2018-12-20T09:34:21.618Z,34.87
2018-12-20T09:36:50.644Z,39.30
2018-12-20T09:39:19.625Z,40.43
2018-12-20T09:41:48.605Z,37.10
2018-12-20T09:44:17.562Z,53.60
2018-12-20T09:46:46.579Z,48.47
2018-12-20T09:49:15.594Z,41.43
2018-12-20T09:51:44.501Z,43.40
2018-12-20T09:54:13.458Z,40.10
2018-12-20T09:56:42.478Z,42.93
2018-12-20T09:59:11.392Z,33.67
2018-12-20T10:01:40.318Z,40.73
2018-12-20T10:04:09.287Z,35.60
2018-12-20T10:06:38.359Z,38.53
2018-12-20T10:09:08.025Z,46.10
2018-12-20T10:11:36.957Z,41.37
2018-12-20T10:14:06.032Z,35.50
2018-12-20T10:16:34.979Z,41.43
2018-12-20T10:19:03.958Z,40.50
2018-12-20T10:21:32.859Z,37.43
2018-12-20T10:24:01.749Z,42.17
2018-12-20T10:26:30.682Z,38.80
2018-12-20T10:28:59.722Z,46.73
2018-12-20T10:31:28.746Z,41.23
2018-12-20T10:33:57.681Z,35.37
2018-12-20T10:36:26.626Z,44.73
2018-12-20T10:38:55.714Z,46.37
2018-12-20T10:41:24.737Z,40.30
2018-12-20T10:43:53.722Z,40.53
2018-12-20T10:46:22.680Z,45.07
2018-12-20T10:48:51.629Z,48.30
2018-12-20T10:51:20.699Z,40.17
2018-12-20T10:53:49.721Z,35.23
2018-12-20T10:56:18.585Z,36.60
2018-12-20T10:58:47.604Z,42.33
2018-12-20T11:01:21.568Z,37.67
2018-12-20T11:03:54.729Z,56.73
2018-12-20T11:07:27.528Z,40.67
2018-12-20T11:10:01.625Z,33.70
2018-12-20T11:12:35.896Z,37.10
2018-12-20T11:15:05.281Z,34.63
2018-12-20T11:17:37.517Z,38.20
2018-12-20T11:20:05.569Z,33.53
2018-12-20T11:22:34.726Z,40.80
2018-12-20T11:25:03.749Z,39.53
2018-12-20T11:27:32.756Z,39.30
2018-12-20T11:30:01.713Z,35.17
2018-12-20T11:32:30.642Z,53.20
2018-12-20T11:34:59.594Z,50.83
2018-12-20T11:37:28.620Z,49.40
2018-12-20T11:39:59.723Z,41.57
2018-12-20T11:42:28.561Z,44.60
2018-12-20T11:44:57.591Z,38.60
2018-12-20T11:47:27.915Z,34.87
2018-12-20T11:49:57.353Z,43.10
2018-12-20T11:52:26.344Z,47.30
2018-12-20T11:54:55.262Z,52.83
2018-12-20T11:57:24.372Z,57.33
2018-12-20T11:59:53.418Z,51.87
2018-12-20T12:02:24.604Z,59.47
2018-12-20T12:04:53.549Z,60.30
2018-12-20T12:07:22.560Z,40.23
2018-12-20T12:09:51.554Z,48.93
2018-12-20T12:12:20.706Z,62.60
2018-12-20T12:14:49.687Z,51.73
2018-12-20T12:17:18.687Z,44.17
2018-12-20T12:19:47.751Z,58.23
2018-12-20T12:22:16.762Z,44.43
2018-12-20T12:24:45.721Z,52.50
2018-12-20T12:27:14.698Z,51.43
2018-12-20T12:29:43.790Z,51.67
2018-12-20T12:32:12.742Z,42.17
2018-12-20T12:34:41.709Z,43.10
2018-12-20T12:37:10.785Z,54.77
2018-12-20T12:39:39.770Z,52.00
2018-12-20T12:42:08.691Z,67.40
2018-12-20T12:44:37.637Z,62.17
2018-12-20T12:47:08.745Z,57.73
2018-12-20T12:49:37.788Z,59.20
2018-12-20T12:52:06.757Z,59.00
2018-12-20T12:54:35.797Z,65.53
2018-12-20T12:57:04.717Z,63.60
2018-12-20T12:59:33.717Z,66.83
2018-12-20T13:02:02.618Z,64.00
2018-12-20T13:04:31.601Z,60.33
2018-12-20T13:07:00.586Z,61.63
2018-12-20T13:09:29.589Z,60.87
2018-12-20T13:11:58.720Z,50.90
2018-12-20T13:14:27.720Z,58.20
2018-12-20T13:16:56.701Z,53.60
2018-12-20T13:19:25.695Z,62.80
2018-12-20T13:21:54.716Z,53.73
2018-12-20T13:24:23.857Z,57.10
2018-12-20T13:26:52.912Z,50.73
2018-12-20T13:29:21.980Z,52.53
2018-12-20T13:31:51.004Z,46.20
2018-12-20T13:34:20.032Z,44.27
2018-12-20T13:36:49.037Z,51.70
2018-12-20T13:39:18.137Z,40.63
2018-12-20T13:41:47.174Z,49.30
2018-12-20T13:44:16.225Z,39.83
2018-12-20T13:46:46.657Z,49.43
2018-12-20T13:49:15.685Z,61.43
2018-12-20T13:51:44.721Z,54.23
2018-12-20T13:54:13.860Z,55.97
2018-12-20T13:56:42.944Z,55.83
2018-12-20T13:59:11.995Z,50.00
2018-12-20T14:01:41.000Z,49.20
2018-12-20T14:04:10.036Z,71.93
2018-12-20T14:06:39.360Z,70.40
2018-12-20T14:09:10.004Z,59.03
2018-12-20T14:11:39.180Z,63.70
2018-12-20T14:14:08.188Z,63.30
2018-12-20T14:16:37.333Z,53.63
2018-12-20T14:19:06.354Z,58.60
2018-12-20T14:21:35.296Z,54.10
2018-12-20T14:24:04.412Z,64.20
2018-12-20T14:26:33.350Z,47.87
2018-12-20T14:29:02.404Z,46.17
2018-12-20T14:31:31.394Z,58.90
2018-12-20T14:34:00.385Z,74.43
2018-12-20T14:36:29.425Z,58.20
2018-12-20T14:38:58.486Z,61.80
2018-12-20T14:41:27.433Z,65.73
2018-12-20T14:43:56.484Z,60.83
2018-12-20T14:46:25.424Z,82.47
2018-12-20T14:49:24.829Z,78.50
2018-12-20T14:51:53.836Z,63.93
2018-12-20T14:54:23.008Z,68.17
2018-12-20T14:56:51.938Z,61.87
2018-12-20T14:59:20.932Z,50.07
2018-12-20T15:01:50.100Z,58.83
2018-12-20T15:04:19.010Z,56.20
2018-12-20T15:06:48.038Z,69.27
2018-12-20T15:09:17.103Z,71.87
2018-12-20T15:11:46.088Z,67.07
2018-12-20T15:14:15.099Z,64.80
2018-12-20T15:16:44.197Z,62.63
2018-12-20T15:19:13.144Z,56.80
2018-12-20T15:21:42.140Z,79.47
2018-12-20T15:24:11.124Z,69.57
2018-12-20T15:26:40.700Z,58.20
2018-12-20T15:29:09.834Z,78.37
2018-12-20T15:31:38.821Z,83.37
2018-12-20T15:34:07.805Z,70.07
2018-12-20T15:36:36.696Z,82.23
2018-12-20T15:39:07.691Z,83.03
2018-12-20T15:41:36.692Z,100.40
2018-12-20T15:44:05.701Z,94.37
2018-12-20T15:46:34.636Z,118.23
2018-12-20T15:49:03.736Z,90.03
2018-12-20T15:51:33.550Z,78.63
2018-12-20T15:54:02.514Z,76.63
2018-12-20T15:56:31.340Z,85.67
2018-12-20T15:59:00.322Z,78.50
2018-12-20T16:01:29.302Z,82.70
2018-12-20T16:03:58.213Z,97.57
2018-12-20T16:06:27.335Z,81.93
2018-12-20T16:08:56.274Z,80.23
2018-12-20T16:11:25.338Z,66.07
2018-12-20T16:13:54.436Z,56.53
2018-12-20T16:16:23.523Z,55.10
2018-12-20T16:18:52.576Z,71.90
2018-12-20T16:21:21.629Z,75.97
2018-12-20T16:23:50.614Z,85.10
2018-12-20T16:26:19.611Z,73.73
2018-12-20T16:28:48.640Z,75.30
2018-12-20T16:31:17.706Z,73.30
2018-12-20T16:33:46.653Z,88.73
2018-12-20T16:36:15.727Z,74.83
2018-12-20T16:38:44.811Z,88.20
2018-12-20T16:41:13.758Z,73.23
2018-12-20T16:43:42.761Z,70.37
2018-12-20T16:46:11.811Z,67.87
2018-12-20T16:48:40.750Z,78.30
2018-12-20T16:51:09.699Z,76.80
2018-12-20T16:53:38.638Z,60.13
2018-12-20T16:56:07.726Z,63.53
2018-12-20T16:58:36.802Z,66.70
2018-12-20T17:01:05.809Z,64.17
2018-12-20T17:03:35.077Z,59.33
2018-12-20T17:06:04.108Z,49.10
2018-12-20T17:08:33.232Z,70.60
2018-12-20T17:11:02.218Z,70.77
2018-12-20T17:13:31.208Z,72.93
2018-12-20T17:16:00.157Z,98.07
2018-12-20T17:18:29.093Z,63.57
2018-12-20T17:20:58.070Z,76.53
2018-12-20T17:23:35.423Z,73.83
2018-12-20T17:25:58.384Z,61.77
2018-12-20T17:28:27.434Z,84.93
2018-12-20T17:30:56.541Z,67.17
2018-12-20T17:33:25.537Z,62.00
2018-12-20T17:35:54.556Z,81.33
2018-12-20T17:38:23.562Z,79.00
2018-12-20T17:40:52.752Z,69.03
2018-12-20T17:43:21.728Z,77.63
2018-12-20T17:45:50.777Z,83.13
2018-12-20T17:48:19.704Z,74.30
2018-12-20T17:50:48.741Z,66.73
2018-12-20T17:53:17.721Z,73.83
2018-12-20T17:55:46.651Z,87.87
2018-12-20T17:58:15.648Z,74.40
2018-12-20T18:00:44.860Z,82.33
2018-12-20T18:03:13.940Z,72.13
2018-12-20T18:05:43.018Z,66.73
2018-12-20T18:08:12.049Z,58.30
2018-12-20T18:10:41.586Z,84.10
2018-12-20T18:13:10.679Z,76.90
2018-12-20T18:15:39.677Z,86.17
2018-12-20T18:18:08.688Z,115.30
2018-12-20T18:20:37.779Z,108.00
2018-12-20T18:23:06.796Z,101.70
2018-12-20T18:25:35.738Z,108.10
2018-12-20T18:28:04.696Z,81.80
2018-12-20T18:30:33.692Z,103.30
2018-12-20T18:33:02.733Z,75.53
2018-12-20T18:35:31.678Z,89.47
2018-12-20T18:38:00.754Z,82.07
2018-12-20T18:40:29.929Z,78.93
2018-12-20T18:42:58.923Z,84.80
2018-12-20T18:45:27.862Z,82.63
2018-12-20T18:47:56.944Z,89.10
2018-12-20T18:50:25.937Z,73.80
2018-12-20T18:52:54.873Z,74.50
2018-12-20T18:55:23.979Z,73.27
2018-12-20T18:57:52.961Z,80.17
2018-12-20T19:00:21.969Z,84.13
2018-12-20T19:02:51.064Z,83.53
2018-12-20T19:05:20.070Z,118.90
2018-12-20T19:07:49.001Z,78.60
2018-12-20T19:10:18.061Z,80.83
2018-12-20T19:12:47.080Z,71.00
2018-12-20T19:15:16.051Z,73.57
2018-12-20T19:17:45.053Z,87.30
2018-12-20T19:20:16.376Z,81.83
2018-12-20T19:22:45.063Z,92.70
2018-12-20T19:25:14.020Z,101.53
2018-12-20T19:27:42.940Z,93.33
2018-12-20T19:30:12.306Z,127.40
2018-12-20T19:32:41.341Z,111.30
2018-12-20T19:35:10.550Z,102.53
2018-12-20T19:37:39.573Z,76.73
2018-12-20T19:40:10.922Z,89.27
2018-12-20T19:42:39.906Z,80.83
2018-12-20T19:45:08.892Z,84.00
2018-12-20T19:47:38.246Z,74.40
2018-12-20T19:50:09.205Z,76.00
2018-12-20T19:52:38.191Z,73.47
2018-12-20T19:55:07.653Z,68.33
2018-12-20T19:57:36.686Z,69.57
2018-12-20T20:00:10.104Z,61.20
2018-12-20T20:02:39.149Z,53.20
2018-12-20T20:05:08.189Z,56.50
2018-12-20T20:07:37.257Z,63.30
2018-12-20T20:10:08.353Z,61.63
2018-12-20T20:12:37.356Z,65.93
2018-12-20T20:15:16.041Z,79.50
2018-12-20T20:17:39.605Z,70.93
2018-12-20T20:20:13.715Z,60.00
2018-12-20T20:22:39.657Z,61.67
2018-12-20T20:25:09.301Z,53.80
2018-12-20T20:27:38.337Z,64.40
2018-12-20T20:30:10.653Z,56.07
2018-12-20T20:32:39.640Z,48.63
2018-12-20T20:35:08.829Z,68.43
2018-12-20T20:37:37.825Z,61.37
2018-12-20T20:40:09.121Z,59.70
2018-12-20T20:42:38.085Z,49.93
2018-12-20T20:45:07.698Z,67.73
2018-12-20T20:47:36.644Z,67.70
2018-12-20T20:50:07.089Z,57.23
2018-12-20T20:52:36.180Z,52.33
2018-12-20T20:55:05.974Z,66.70
2018-12-20T20:57:35.001Z,49.30
2018-12-20T21:00:04.250Z,69.03
2018-12-20T21:02:33.097Z,49.10
2018-12-20T21:05:02.054Z,48.17
2018-12-20T21:07:31.037Z,53.07
2018-12-20T21:09:59.919Z,56.53
2018-12-20T21:12:28.965Z,48.03
2018-12-20T21:14:57.946Z,64.07
2018-12-20T21:17:26.941Z,61.77
2018-12-20T21:19:55.983Z,54.80
2018-12-20T21:22:24.940Z,53.63
2018-12-20T21:24:53.916Z,55.57
2018-12-20T21:27:22.952Z,54.50
2018-12-20T21:29:51.930Z,49.80
2018-12-20T21:32:20.909Z,62.10
2018-12-20T21:34:49.885Z,75.13
2018-12-20T21:37:18.829Z,64.27
2018-12-20T21:39:47.830Z,93.73
2018-12-20T21:42:16.917Z,68.17
2018-12-20T21:44:46.028Z,65.20
2018-12-20T21:47:14.915Z,69.50
2018-12-20T21:49:43.956Z,71.00
2018-12-20T21:52:13.309Z,92.53
2018-12-20T21:54:42.288Z,63.97
2018-12-20T21:57:11.299Z,65.63
2018-12-20T21:59:40.445Z,56.03
2018-12-20T22:02:09.469Z,70.47
2018-12-20T22:04:38.444Z,77.23
2018-12-20T22:07:07.517Z,68.30
2018-12-20T22:09:36.397Z,52.17
2018-12-20T22:12:05.429Z,106.37
2018-12-20T22:14:34.455Z,62.13
2018-12-20T22:17:03.455Z,77.27
2018-12-20T22:19:32.505Z,65.17
2018-12-20T22:22:01.478Z,72.37
2018-12-20T22:24:30.413Z,70.97
2018-12-20T22:26:59.244Z,67.57
2018-12-20T22:29:28.214Z,81.67
2018-12-20T22:31:57.235Z,65.53
2018-12-20T22:34:26.214Z,72.37
2018-12-20T22:36:55.100Z,78.57
2018-12-20T22:39:23.985Z,68.90
2018-12-20T22:41:53.022Z,64.90
2018-12-20T22:44:22.009Z,89.13
2018-12-20T22:46:51.088Z,80.93
2018-12-20T22:49:20.024Z,98.43
2018-12-20T22:51:49.001Z,76.33
2018-12-20T22:54:17.971Z,71.30
2018-12-20T22:56:46.900Z,98.93
2018-12-20T22:59:15.829Z,100.53
2018-12-20T23:01:44.879Z,143.17
2018-12-20T23:04:13.797Z,117.03
2018-12-20T23:06:42.828Z,89.83
2018-12-20T23:09:11.717Z,126.57
2018-12-20T23:11:40.669Z,184.17
2018-12-20T23:14:09.625Z,105.63
2018-12-20T23:16:38.556Z,124.67
2018-12-20T23:19:07.501Z,165.37
2018-12-20T23:21:36.489Z,92.80
2018-12-20T23:24:05.455Z,100.63
2018-12-20T23:26:34.452Z,91.97
2018-12-20T23:29:03.609Z,106.90
2018-12-20T23:31:32.669Z,80.33
2018-12-20T23:34:01.693Z,91.30
2018-12-20T23:36:30.717Z,89.70
2018-12-20T23:38:59.729Z,91.70
2018-12-20T23:41:28.608Z,97.70
2018-12-20T23:43:57.623Z,75.40
2018-12-20T23:46:26.595Z,78.97
2018-12-20T23:48:55.535Z,87.67
2018-12-20T23:51:24.505Z,78.63
2018-12-20T23:53:53.498Z,70.53
2018-12-20T23:56:22.369Z,59.60
2018-12-20T23:58:51.401Z,78.80
